Time;durP1;ratioP1;P1;durP2;ratioP2;P2;SDS_P1;SDS_P2;PMS_P1;PMS_P2;Temp;Humidity;BMP_temperature;BMP_pressure;BME280_temperature;BME280_humidity;BME280_pressure;Samples;Min_cycle;Max_cycle;Signal;HPM_P1;HPM_P2
2022/03/15 00:01:06;;;;;;;9.70;6.77;;;8.60;99.90;;;;;;5023259;28;20465;-39
2022/03/15 00:03:31;;;;;;;11.77;7.30;;;8.80;99.90;;;;;;5029811;28;20243;-40
2022/03/15 00:05:58;;;;;;;10.60;6.47;;;8.70;99.90;;;;;;5024599;28;20187;-39
2022/03/15 00:08:26;;;;;;;7.37;5.77;;;8.70;99.90;;;;;;5029576;28;20213;-39
2022/03/15 00:10:57;;;;;;;9.33;6.63;;;8.80;99.90;;;;;;5016585;28;20937;-42
2022/03/15 00:13:24;;;;;;;7.37;6.00;;;8.70;99.90;;;;;;5029151;28;20422;-40
2022/03/15 00:15:50;;;;;;;7.17;6.30;;;8.70;99.90;;;;;;5029336;28;20532;-39
2022/03/15 00:18:16;;;;;;;11.37;6.73;;;8.70;99.90;;;;;;5028086;28;20433;-40
2022/03/15 00:20:41;;;;;;;10.33;6.00;;;8.50;99.90;;;;;;5028835;28;20249;-42
2022/03/15 00:23:08;;;;;;;8.43;6.53;;;8.90;99.90;;;;;;5038111;28;20596;-40
2022/03/15 00:25:34;;;;;;;8.20;6.20;;;8.60;99.90;;;;;;5032439;28;20286;-40
2022/03/15 00:28:00;;;;;;;9.47;6.30;;;8.60;99.90;;;;;;5026587;28;20528;-41
2022/03/15 00:30:26;;;;;;;9.00;5.77;;;8.60;99.90;;;;;;5028629;28;20430;-40
2022/03/15 00:32:52;;;;;;;11.90;6.60;;;8.70;99.90;;;;;;5027966;28;20505;-39
2022/03/15 00:35:25;;;;;;;8.33;6.47;;;8.50;99.90;;;;;;5029106;28;20433;-39
2022/03/15 00:37:53;;;;;;;10.00;6.27;;;8.50;99.90;;;;;;5028989;28;20425;-40
2022/03/15 00:40:20;;;;;;;8.33;6.23;;;8.60;99.90;;;;;;5021476;28;21016;-40
2022/03/15 00:42:53;;;;;;;8.27;5.97;;;8.60;99.90;;;;;;5025658;28;20443;-40
2022/03/15 00:45:22;;;;;;;7.33;6.20;;;8.40;99.90;;;;;;5029176;28;20549;-40
2022/03/15 00:47:49;;;;;;;9.00;6.23;;;8.50;99.90;;;;;;5027429;28;20448;-40
2022/03/15 00:50:15;;;;;;;10.87;6.00;;;8.40;99.90;;;;;;5028511;28;20506;-41
2022/03/15 00:52:41;;;;;;;7.50;5.80;;;8.40;99.90;;;;;;5028617;28;20536;-40
2022/03/15 00:55:08;;;;;;;10.90;6.47;;;8.60;99.90;;;;;;5022000;28;20532;-40
2022/03/15 00:57:34;;;;;;;8.20;5.50;;;8.70;99.90;;;;;;5023623;28;20206;-40
2022/03/15 01:00:00;;;;;;;9.63;5.97;;;8.60;99.90;;;;;;5028216;28;20824;-40
2022/03/15 01:02:25;;;;;;;14.33;6.17;;;8.60;99.90;;;;;;5027476;28;20194;-40
2022/03/15 01:04:51;;;;;;;9.07;5.80;;;8.50;99.90;;;;;;5027493;28;20289;-40
2022/03/15 01:07:17;;;;;;;7.80;5.63;;;8.70;99.90;;;;;;5026959;28;20240;-40
2022/03/15 01:09:42;;;;;;;8.33;6.20;;;8.60;99.90;;;;;;5027983;28;20545;-42
2022/03/15 01:12:09;;;;;;;8.93;5.63;;;8.50;99.90;;;;;;5012259;28;20273;-39
2022/03/15 01:14:35;;;;;;;5.80;5.20;;;8.60;99.90;;;;;;5026864;28;20278;-40
2022/03/15 01:17:02;;;;;;;8.57;6.30;;;8.80;99.90;;;;;;5026865;28;20648;-39
2022/03/15 01:19:28;;;;;;;8.73;5.40;;;8.60;99.90;;;;;;5028095;28;20456;-39
2022/03/15 01:21:55;;;;;;;6.60;5.70;;;8.60;99.90;;;;;;5027531;28;20417;-40
2022/03/15 01:24:21;;;;;;;8.43;5.90;;;8.60;99.90;;;;;;5045474;28;20428;-39
2022/03/15 01:26:49;;;;;;;8.80;5.50;;;8.50;99.90;;;;;;5019052;28;20524;-40
2022/03/15 01:29:15;;;;;;;9.27;5.70;;;8.50;99.90;;;;;;5027826;28;20420;-40
2022/03/15 01:31:40;;;;;;;7.57;5.93;;;8.60;99.90;;;;;;5027829;28;20903;-44
2022/03/15 01:34:07;;;;;;;8.80;5.67;;;8.70;99.90;;;;;;5027864;28;20199;-40
2022/03/15 01:36:34;;;;;;;8.87;5.83;;;8.60;99.90;;;;;;5028435;28;20190;-40
2022/03/15 01:39:00;;;;;;;7.47;5.80;;;8.60;99.90;;;;;;5027523;28;20524;-40
2022/03/15 01:41:26;;;;;;;8.10;5.90;;;8.70;99.90;;;;;;5017060;28;20520;-40
2022/03/15 01:43:51;;;;;;;11.00;6.00;;;8.80;99.90;;;;;;5025294;28;20187;-41
2022/03/15 01:46:17;;;;;;;9.60;6.33;;;8.70;99.90;;;;;;5027681;28;20252;-39
2022/03/15 01:48:43;;;;;;;7.70;6.83;;;8.70;99.90;;;;;;5026437;28;20198;-39
2022/03/15 01:51:13;;;;;;;8.53;6.40;;;8.80;99.90;;;;;;5027006;28;20289;-40
2022/03/15 01:53:39;;;;;;;7.67;5.63;;;8.90;99.90;;;;;;5027889;28;20452;-39
2022/03/15 01:56:05;;;;;;;6.50;5.90;;;8.90;99.90;;;;;;5020547;28;20843;-41
2022/03/15 01:58:31;;;;;;;7.23;6.27;;;8.60;99.90;;;;;;5027522;28;20464;-39
2022/03/15 02:00:57;;;;;;;8.13;6.37;;;8.90;99.90;;;;;;5026832;28;20218;-40
2022/03/15 02:03:23;;;;;;;10.67;6.80;;;8.70;99.90;;;;;;5027719;28;20423;-39
2022/03/15 02:05:48;;;;;;;7.27;6.27;;;8.60;99.90;;;;;;5027290;28;20232;-41
2022/03/15 02:08:16;;;;;;;7.60;5.63;;;8.70;99.90;;;;;;5026981;28;20425;-39
2022/03/15 02:10:42;;;;;;;9.10;6.00;;;8.70;99.90;;;;;;5021997;28;20224;-41
2022/03/15 02:13:09;;;;;;;9.37;5.80;;;8.70;99.90;;;;;;5023522;28;20468;-39
2022/03/15 02:15:36;;;;;;;6.50;5.70;;;8.70;99.90;;;;;;5027387;28;20516;-39
2022/03/15 02:18:03;;;;;;;7.40;6.00;;;8.80;99.90;;;;;;5014432;28;20432;-40
2022/03/15 02:20:30;;;;;;;11.50;6.77;;;8.60;99.90;;;;;;5026337;28;20824;-40
2022/03/15 02:22:57;;;;;;;9.70;6.37;;;8.60;99.90;;;;;;5034291;28;20823;-42
2022/03/15 02:25:23;;;;;;;8.50;6.30;;;8.60;99.90;;;;;;5045315;28;20451;-40
2022/03/15 02:27:51;;;;;;;8.37;7.47;;;8.70;99.90;;;;;;5018505;28;20490;-40
2022/03/15 02:30:17;;;;;;;6.73;5.80;;;8.60;99.90;;;;;;5026422;28;20800;-41
2022/03/15 02:32:44;;;;;;;7.70;6.13;;;8.70;99.90;;;;;;5027256;28;20775;-39
2022/03/15 02:35:10;;;;;;;8.53;5.73;;;8.60;99.90;;;;;;5026802;28;20543;-40
2022/03/15 02:37:35;;;;;;;6.20;5.20;;;8.60;99.90;;;;;;5027078;28;20730;-39
2022/03/15 02:40:03;;;;;;;9.37;5.60;;;8.60;99.90;;;;;;5026688;28;20699;-43
2022/03/15 02:42:29;;;;;;;7.10;5.20;;;8.90;99.90;;;;;;5017302;28;20269;-40
2022/03/15 02:44:55;;;;;;;7.73;6.00;;;8.60;99.90;;;;;;5027090;28;20796;-40
2022/03/15 02:47:20;;;;;;;10.83;5.20;;;8.70;99.90;;;;;;5026976;28;20751;-40
2022/03/15 02:49:46;;;;;;;11.97;6.10;;;8.70;99.90;;;;;;5026443;28;20669;-41
2022/03/15 02:52:12;;;;;;;8.90;5.83;;;8.60;99.90;;;;;;5026884;28;20679;-40
2022/03/15 02:54:41;;;;;;;7.80;6.30;;;8.60;99.90;;;;;;5025841;28;20421;-40
2022/03/15 02:57:10;;;;;;;8.40;5.53;;;8.60;99.90;;;;;;5017985;28;20207;-42
2022/03/15 02:59:39;;;;;;;7.17;5.07;;;8.80;99.90;;;;;;5026538;28;20457;-40
2022/03/15 03:02:06;;;;;;;7.67;5.53;;;8.60;99.90;;;;;;5026736;28;20421;-39
2022/03/15 03:04:31;;;;;;;8.83;5.70;;;8.60;99.90;;;;;;5027017;28;20479;-41
2022/03/15 03:07:00;;;;;;;8.97;5.80;;;8.60;99.90;;;;;;5026850;28;20471;-40
2022/03/15 03:09:26;;;;;;;6.23;5.17;;;8.70;99.90;;;;;;5025935;28;20534;-40
2022/03/15 03:11:51;;;;;;;6.30;5.27;;;8.60;99.90;;;;;;5016863;28;20871;-40
2022/03/15 03:14:21;;;;;;;10.50;5.80;;;8.40;99.90;;;;;;5026799;28;20621;-40
2022/03/15 03:16:46;;;;;;;6.00;5.13;;;8.70;99.90;;;;;;5016112;28;20187;-40
2022/03/15 03:19:12;;;;;;;5.80;5.17;;;8.60;99.90;;;;;;5026699;28;20431;-39
2022/03/15 03:21:38;;;;;;;7.20;4.47;;;8.70;99.90;;;;;;5038298;28;20240;-40
2022/03/15 03:24:06;;;;;;;11.70;5.23;;;8.60;99.90;;;;;;5030651;28;21326;-40
2022/03/15 03:26:36;;;;;;;7.70;5.10;;;8.60;99.90;;;;;;5022658;28;20277;-40
2022/03/15 03:29:02;;;;;;;6.90;5.10;;;8.80;99.90;;;;;;5029168;28;20463;-39
2022/03/15 03:31:29;;;;;;;6.63;4.63;;;8.70;99.90;;;;;;5029495;28;20440;-40
2022/03/15 03:33:54;;;;;;;5.10;4.60;;;8.70;99.90;;;;;;5030425;28;20425;-40
2022/03/15 03:36:20;;;;;;;8.13;5.77;;;8.90;99.90;;;;;;5030182;28;20484;-39
2022/03/15 03:38:47;;;;;;;8.83;5.30;;;8.80;99.90;;;;;;5030077;28;20237;-41
2022/03/15 03:41:13;;;;;;;8.37;5.13;;;9.00;99.90;;;;;;5024534;28;20214;-40
2022/03/15 03:43:38;;;;;;;10.60;4.90;;;8.70;99.90;;;;;;5026482;28;20932;-40
2022/03/15 03:46:04;;;;;;;6.23;4.70;;;8.80;99.90;;;;;;5044717;28;20200;-40
2022/03/15 03:48:30;;;;;;;9.20;4.33;;;8.80;99.90;;;;;;5029772;28;20182;-40
2022/03/15 03:50:56;;;;;;;8.37;4.37;;;8.80;99.90;;;;;;5029339;28;20193;-39
2022/03/15 03:53:22;;;;;;;7.27;4.63;;;8.90;99.90;;;;;;5029647;28;20744;-39
2022/03/15 03:55:48;;;;;;;7.20;4.43;;;9.00;99.90;;;;;;5006855;28;20207;-39
2022/03/15 03:58:14;;;;;;;4.63;4.07;;;9.00;99.90;;;;;;5018602;28;20433;-40
2022/03/15 04:00:40;;;;;;;6.97;4.40;;;8.70;99.90;;;;;;5028730;28;20467;-40
2022/03/15 04:03:06;;;;;;;6.17;4.47;;;8.70;99.90;;;;;;5029948;28;20239;-40
2022/03/15 04:05:35;;;;;;;5.57;4.23;;;8.70;99.90;;;;;;5029737;28;20190;-40
2022/03/15 04:08:01;;;;;;;4.93;4.13;;;8.80;99.90;;;;;;5029725;28;20421;-41
2022/03/15 04:10:30;;;;;;;6.10;4.37;;;9.00;99.90;;;;;;5028955;28;20429;-42
2022/03/15 04:12:55;;;;;;;5.73;4.33;;;8.80;99.90;;;;;;5018739;28;20795;-43
2022/03/15 04:15:23;;;;;;;5.97;4.17;;;8.80;99.90;;;;;;5029503;28;20433;-40
2022/03/15 04:17:49;;;;;;;8.40;4.97;;;8.70;99.90;;;;;;5029214;28;20471;-40
2022/03/15 04:20:15;;;;;;;5.10;4.60;;;8.80;99.90;;;;;;5028565;28;20508;-40
2022/03/15 04:22:41;;;;;;;7.60;4.37;;;8.60;99.90;;;;;;5034291;28;20465;-39
2022/03/15 04:25:07;;;;;;;8.33;4.53;;;8.80;99.90;;;;;;5047872;28;20416;-40
2022/03/15 04:27:33;;;;;;;5.33;4.80;;;9.00;99.90;;;;;;5024658;28;20195;-40
2022/03/15 04:29:59;;;;;;;7.90;5.23;;;8.90;99.90;;;;;;5025153;28;20490;-39
2022/03/15 04:32:24;;;;;;;7.90;5.13;;;8.90;99.90;;;;;;5028999;28;20939;-40
2022/03/15 04:34:51;;;;;;;9.43;5.33;;;8.70;99.90;;;;;;5028962;28;20421;-39
2022/03/15 04:37:18;;;;;;;6.90;4.77;;;8.80;99.90;;;;;;5029072;28;20198;-40
2022/03/15 04:39:44;;;;;;;8.40;4.70;;;8.60;99.90;;;;;;5028674;28;20850;-42
2022/03/15 04:42:10;;;;;;;6.07;4.40;;;8.70;99.90;;;;;;5023173;28;20433;-40
2022/03/15 04:44:35;;;;;;;6.60;4.50;;;8.70;99.90;;;;;;5024474;28;20225;-39
2022/03/15 04:47:02;;;;;;;7.53;4.57;;;8.70;99.90;;;;;;5028566;28;20606;-41
2022/03/15 04:49:27;;;;;;;6.00;4.30;;;8.80;99.90;;;;;;5028883;28;20220;-40
2022/03/15 04:51:54;;;;;;;6.87;4.50;;;8.90;99.90;;;;;;5028123;28;20425;-39
2022/03/15 04:54:19;;;;;;;6.00;4.70;;;8.70;99.90;;;;;;5029033;28;20186;-41
2022/03/15 04:56:45;;;;;;;6.93;4.00;;;8.90;99.90;;;;;;5021537;28;21018;-40
2022/03/15 04:59:10;;;;;;;6.53;4.47;;;8.70;99.90;;;;;;5020725;28;20186;-40
2022/03/15 05:01:36;;;;;;;5.13;4.10;;;8.50;99.90;;;;;;5027440;28;20201;-39
2022/03/15 05:04:02;;;;;;;7.90;3.90;;;8.80;99.90;;;;;;5027730;28;20248;-40
2022/03/15 05:06:28;;;;;;;8.40;4.40;;;8.60;99.90;;;;;;5028462;28;20187;-39
2022/03/15 05:08:53;;;;;;;5.30;4.00;;;8.70;99.90;;;;;;5028625;28;20186;-40
2022/03/15 05:11:19;;;;;;;8.40;4.60;;;8.60;99.90;;;;;;5027489;28;20660;-40
2022/03/15 05:13:47;;;;;;;6.00;4.33;;;8.70;99.90;;;;;;5020624;28;20289;-40
2022/03/15 05:16:19;;;;;;;5.83;4.30;;;8.60;99.90;;;;;;5028274;28;20424;-40
2022/03/15 05:18:54;;;;;;;5.53;4.60;;;8.80;99.90;;;;;;5026974;28;20425;-43
2022/03/15 05:21:24;;;;;;;5.63;3.90;;;8.90;99.90;;;;;;5027699;28;20511;-40
2022/03/15 05:23:51;;;;;;;5.93;4.07;;;9.00;99.90;;;;;;5042224;28;20420;-41
2022/03/15 05:26:17;;;;;;;5.90;4.20;;;9.00;99.90;;;;;;5047048;28;20424;-39
2022/03/15 05:28:45;;;;;;;6.07;3.90;;;8.70;99.90;;;;;;5023297;28;20480;-41
2022/03/15 05:31:12;;;;;;;6.13;3.80;;;8.80;99.90;;;;;;5027627;28;20429;-42
2022/03/15 05:33:38;;;;;;;5.50;4.00;;;9.00;99.90;;;;;;5026576;28;20435;-41
2022/03/15 05:36:04;;;;;;;5.93;4.27;;;8.90;99.90;;;;;;5027954;28;20440;-40
2022/03/15 05:38:30;;;;;;;5.93;3.90;;;8.60;99.90;;;;;;5027986;28;20433;-39
2022/03/15 05:40:56;;;;;;;7.80;3.80;;;8.70;99.90;;;;;;5026670;28;20221;-40
2022/03/15 05:43:22;;;;;;;5.03;3.67;;;8.70;99.90;;;;;;5018985;28;20445;-40
2022/03/15 05:45:50;;;;;;;6.43;4.00;;;8.80;99.90;;;;;;5026718;28;20440;-40
2022/03/15 05:48:17;;;;;;;5.37;3.87;;;8.80;99.90;;;;;;5027520;28;20430;-40
2022/03/15 05:50:43;;;;;;;4.60;3.03;;;8.70;99.90;;;;;;5027128;28;20437;-39
2022/03/15 05:53:08;;;;;;;5.33;3.80;;;8.60;99.90;;;;;;5027318;28;20427;-40
2022/03/15 05:55:36;;;;;;;5.17;3.80;;;8.70;99.90;;;;;;5026609;28;20448;-41
2022/03/15 05:58:02;;;;;;;5.13;3.27;;;8.60;99.90;;;;;;5017343;28;20562;-39
2022/03/15 06:00:29;;;;;;;5.80;4.00;;;8.60;99.90;;;;;;5026837;28;20970;-40
2022/03/15 06:02:55;;;;;;;7.53;4.03;;;8.70;99.90;;;;;;5026237;28;20440;-42
2022/03/15 06:05:21;;;;;;;5.00;3.67;;;8.70;99.90;;;;;;5027542;28;20914;-39
2022/03/15 06:07:49;;;;;;;7.13;4.93;;;8.60;99.90;;;;;;5027468;28;20447;-40
2022/03/15 06:10:16;;;;;;;6.90;3.90;;;8.60;99.90;;;;;;5027160;28;20595;-40
2022/03/15 06:12:43;;;;;;;8.87;4.30;;;8.50;99.90;;;;;;5021842;28;20445;-40
2022/03/15 06:15:09;;;;;;;6.80;4.00;;;8.50;99.90;;;;;;5019493;28;20551;-41
2022/03/15 06:17:44;;;;;;;6.17;4.10;;;8.50;99.90;;;;;;5027183;28;20704;-40
2022/03/15 06:20:13;;;;;;;6.10;4.07;;;8.70;99.90;;;;;;5026375;28;20610;-40
2022/03/15 06:22:39;;;;;;;4.60;4.07;;;8.60;99.90;;;;;;5013797;28;20430;-40
2022/03/15 06:25:05;;;;;;;5.20;3.63;;;8.50;99.90;;;;;;5018399;28;20429;-39
2022/03/15 06:27:31;;;;;;;5.83;3.67;;;8.70;99.90;;;;;;5021647;28;20445;-40
2022/03/15 06:29:57;;;;;;;6.97;4.33;;;8.70;99.90;;;;;;5019173;28;20793;-39
2022/03/15 06:32:23;;;;;;;5.60;3.60;;;8.50;99.90;;;;;;5025957;28;20209;-42
2022/03/15 06:34:49;;;;;;;6.20;3.90;;;8.70;99.90;;;;;;5027334;28;21008;-40
2022/03/15 06:37:15;;;;;;;9.93;4.50;;;8.40;99.90;;;;;;5027202;28;20215;-41
2022/03/15 06:39:41;;;;;;;7.27;4.10;;;8.50;99.90;;;;;;5026468;28;20460;-40
2022/03/15 06:42:10;;;;;;;4.83;3.83;;;8.50;99.90;;;;;;5025450;28;20183;-40
2022/03/15 06:44:37;;;;;;;7.40;3.60;;;8.60;99.90;;;;;;5021256;28;20220;-41
2022/03/15 06:47:03;;;;;;;5.30;4.10;;;8.70;99.90;;;;;;5025560;28;20429;-42
2022/03/15 06:49:28;;;;;;;6.80;3.90;;;8.40;99.90;;;;;;5027357;28;20441;-41
2022/03/15 06:51:54;;;;;;;5.73;3.60;;;8.60;99.90;;;;;;5026421;28;20425;-42
2022/03/15 06:54:20;;;;;;;3.70;3.20;;;8.40;99.90;;;;;;5029949;28;20233;-40
2022/03/15 06:56:45;;;;;;;8.67;3.60;;;8.70;99.90;;;;;;5030227;28;20202;-39
2022/03/15 06:59:11;;;;;;;4.00;3.53;;;8.60;99.90;;;;;;5019869;28;20249;-40
2022/03/15 07:01:37;;;;;;;5.57;3.47;;;8.80;99.90;;;;;;5029820;28;20848;-39
2022/03/15 07:04:02;;;;;;;4.60;3.80;;;8.60;99.90;;;;;;5009739;28;20753;-39
2022/03/15 07:06:28;;;;;;;7.90;5.13;;;8.70;99.90;;;;;;5028599;28;20194;-40
2022/03/15 07:08:54;;;;;;;6.00;4.13;;;8.80;99.90;;;;;;5029786;28;20245;-40
2022/03/15 07:11:20;;;;;;;6.63;4.30;;;8.70;99.90;;;;;;5030108;28;20205;-40
2022/03/15 07:13:45;;;;;;;6.50;4.20;;;8.80;99.90;;;;;;5021071;28;20446;-40
2022/03/15 07:16:12;;;;;;;5.90;4.00;;;8.70;99.90;;;;;;5030129;28;20277;-41
2022/03/15 07:18:37;;;;;;;4.03;3.67;;;8.80;99.90;;;;;;5030082;28;20244;-40
2022/03/15 07:21:03;;;;;;;6.90;4.50;;;8.80;99.90;;;;;;5028465;28;20468;-39
2022/03/15 07:23:29;;;;;;;7.33;3.90;;;8.90;99.90;;;;;;5041462;28;20680;-40
2022/03/15 07:25:54;;;;;;;7.03;4.37;;;8.90;99.90;;;;;;5050650;28;20201;-40
2022/03/15 07:28:20;;;;;;;5.33;4.40;;;8.90;99.90;;;;;;5033036;28;20668;-40
2022/03/15 07:30:46;;;;;;;6.40;4.67;;;9.00;99.90;;;;;;5027359;28;20229;-40
2022/03/15 07:33:12;;;;;;;6.60;4.63;;;8.80;99.90;;;;;;5030106;28;20669;-41
2022/03/15 07:35:37;;;;;;;5.90;3.83;;;8.90;99.90;;;;;;5012667;28;20650;-40
2022/03/15 07:38:03;;;;;;;6.17;4.43;;;8.80;99.90;;;;;;5028764;28;20229;-40
2022/03/15 07:40:29;;;;;;;6.60;4.93;;;8.80;99.90;;;;;;5008827;28;20215;-40
2022/03/15 07:42:55;;;;;;;5.43;4.70;;;8.80;99.90;;;;;;5018827;28;20201;-40
2022/03/15 07:45:21;;;;;;;4.67;4.27;;;9.00;99.90;;;;;;5025113;28;20262;-41
2022/03/15 07:47:49;;;;;;;5.90;3.97;;;9.10;99.90;;;;;;5029388;28;20865;-39
2022/03/15 07:50:17;;;;;;;5.57;4.20;;;9.10;99.90;;;;;;5029385;28;20213;-43
2022/03/15 07:52:42;;;;;;;9.90;4.80;;;9.10;99.90;;;;;;5029669;28;20799;-40
2022/03/15 07:55:09;;;;;;;8.53;5.27;;;9.20;99.90;;;;;;5028867;28;20421;-41
2022/03/15 07:57:34;;;;;;;8.60;4.47;;;9.00;99.90;;;;;;5008357;28;20273;-42
2022/03/15 08:00:00;;;;;;;6.97;4.27;;;9.20;99.90;;;;;;5020158;28;20477;-39
2022/03/15 08:02:26;;;;;;;5.63;4.37;;;9.10;99.90;;;;;;5028358;28;20262;-39
2022/03/15 08:04:53;;;;;;;5.50;3.87;;;9.10;99.90;;;;;;5028785;28;20456;-39
2022/03/15 08:07:21;;;;;;;6.07;4.13;;;9.10;99.90;;;;;;5029527;28;20346;-40
2022/03/15 08:09:47;;;;;;;10.23;4.80;;;9.20;99.90;;;;;;5028859;28;20441;-39
2022/03/15 08:12:13;;;;;;;5.63;4.40;;;9.30;99.90;;;;;;5029705;28;20495;-40
2022/03/15 08:14:39;;;;;;;7.10;4.90;;;9.30;99.90;;;;;;5019420;28;20191;-40
2022/03/15 08:17:04;;;;;;;6.07;4.43;;;9.20;99.90;;;;;;5029025;28;20448;-43
2022/03/15 08:19:30;;;;;;;6.27;4.60;;;9.40;99.90;;;;;;5029518;28;20273;-40
2022/03/15 08:22:01;;;;;;;5.27;4.70;;;9.50;99.90;;;;;;5028734;28;20197;-42
2022/03/15 08:24:27;;;;;;;8.03;4.67;;;9.40;99.90;;;;;;5049079;28;20493;-41
2022/03/15 08:26:53;;;;;;;8.40;4.73;;;9.50;99.90;;;;;;5049079;28;20416;-42
2022/03/15 08:29:18;;;;;;;7.57;4.70;;;9.40;99.90;;;;;;5021284;28;21014;-39
2022/03/15 08:31:44;;;;;;;4.80;4.00;;;9.40;99.90;;;;;;5025169;28;20340;-41
2022/03/15 08:34:10;;;;;;;7.10;3.97;;;9.50;99.90;;;;;;5029196;28;20574;-42
2022/03/15 08:36:36;;;;;;;5.87;3.80;;;9.70;99.90;;;;;;5027754;28;20537;-40
2022/03/15 08:39:04;;;;;;;10.03;4.57;;;9.60;99.90;;;;;;5029432;28;20592;-39
2022/03/15 08:41:29;;;;;;;5.83;4.10;;;9.60;99.90;;;;;;5027024;28;20464;-40
2022/03/15 08:43:55;;;;;;;7.00;4.10;;;9.60;99.90;;;;;;5020906;28;20503;-39
2022/03/15 08:46:21;;;;;;;5.20;4.13;;;9.60;99.90;;;;;;5022340;28;20190;-40
2022/03/15 08:48:46;;;;;;;4.37;3.60;;;9.60;99.90;;;;;;5028791;28;20460;-39
2022/03/15 08:51:12;;;;;;;5.00;3.73;;;9.60;99.90;;;;;;5028238;28;20834;-39
2022/03/15 08:53:38;;;;;;;6.13;4.00;;;9.50;99.90;;;;;;5028754;28;20209;-40
2022/03/15 08:56:04;;;;;;;6.00;4.27;;;9.80;99.90;;;;;;5026164;28;20221;-40
2022/03/15 08:58:30;;;;;;;6.60;4.47;;;9.60;99.90;;;;;;5022456;28;20197;-41
2022/03/15 09:00:56;;;;;;;6.43;4.47;;;9.60;99.90;;;;;;5022715;28;20460;-40
2022/03/15 09:03:22;;;;;;;6.17;4.43;;;9.70;99.90;;;;;;5028332;28;20187;-40
2022/03/15 09:05:48;;;;;;;11.03;4.80;;;9.70;99.90;;;;;;5027350;28;20422;-40
2022/03/15 09:08:14;;;;;;;6.30;4.20;;;9.70;99.90;;;;;;5028510;28;20421;-40
2022/03/15 09:10:42;;;;;;;5.00;4.07;;;9.80;99.90;;;;;;5027979;28;20413;-40
2022/03/15 09:13:09;;;;;;;6.77;4.33;;;9.80;99.90;;;;;;5027104;28;20283;-39
2022/03/15 09:15:35;;;;;;;7.20;4.93;;;9.80;99.90;;;;;;5010335;28;20448;-39
2022/03/15 09:18:02;;;;;;;6.80;4.93;;;9.70;99.90;;;;;;5028001;28;20421;-40
2022/03/15 09:20:28;;;;;;;5.43;4.13;;;10.00;99.90;;;;;;5027672;28;20495;-45
2022/03/15 09:22:54;;;;;;;10.87;5.27;;;9.90;99.90;;;;;;5034275;28;20417;-39
2022/03/15 09:25:20;;;;;;;8.03;5.30;;;9.80;99.90;;;;;;5048178;28;20420;-39
2022/03/15 09:27:47;;;;;;;5.50;4.23;;;9.80;99.90;;;;;;5046212;28;20416;-39
2022/03/15 09:30:13;;;;;;;5.70;4.50;;;9.90;99.90;;;;;;5021654;28;20186;-40
2022/03/15 09:32:39;;;;;;;7.90;4.90;;;9.90;99.90;;;;;;5027955;28;20425;-40
2022/03/15 09:35:06;;;;;;;8.93;5.30;;;9.80;99.90;;;;;;5028123;28;20470;-39
2022/03/15 09:37:32;;;;;;;6.87;5.13;;;9.80;99.90;;;;;;5027833;28;20186;-40
2022/03/15 09:39:58;;;;;;;7.77;4.27;;;9.80;99.90;;;;;;5026213;28;21027;-42
2022/03/15 09:42:25;;;;;;;7.63;4.50;;;9.80;99.90;;;;;;5027542;28;20464;-40
2022/03/15 09:44:51;;;;;;;6.83;4.70;;;9.90;99.90;;;;;;5015427;28;20600;-41
2022/03/15 09:47:22;;;;;;;9.20;4.90;;;9.60;99.90;;;;;;5026090;28;20419;-39
2022/03/15 09:49:50;;;;;;;8.50;5.20;;;9.70;99.90;;;;;;5027048;28;20413;-39
2022/03/15 09:52:18;;;;;;;11.40;5.20;;;10.00;99.90;;;;;;5027928;28;20424;-40
2022/03/15 09:54:44;;;;;;;7.50;4.87;;;9.80;99.90;;;;;;5026675;28;20485;-40
2022/03/15 09:57:11;;;;;;;5.77;4.40;;;10.00;99.90;;;;;;5026014;28;20460;-40
2022/03/15 09:59:37;;;;;;;5.70;4.57;;;10.00;99.90;;;;;;5017442;28;20466;-40
2022/03/15 10:02:03;;;;;;;6.60;4.57;;;10.10;99.90;;;;;;5026972;28;20456;-40
2022/03/15 10:04:29;;;;;;;5.70;4.00;;;10.00;99.90;;;;;;5027347;28;20598;-40
2022/03/15 10:06:55;;;;;;;6.17;4.40;;;10.10;99.90;;;;;;5026263;28;20417;-43
2022/03/15 10:09:22;;;;;;;9.27;4.30;;;10.20;99.90;;;;;;5025840;28;20796;-39
2022/03/15 10:11:48;;;;;;;6.13;4.43;;;10.10;99.90;;;;;;5025800;28;20421;-41
2022/03/15 10:14:17;;;;;;;9.97;6.00;;;10.20;99.90;;;;;;5024314;28;20783;-40
2022/03/15 10:16:43;;;;;;;7.20;4.80;;;10.10;99.90;;;;;;5025450;28;20463;-40
2022/03/15 10:19:10;;;;;;;5.37;4.50;;;10.40;99.90;;;;;;5022883;28;20927;-39
2022/03/15 10:21:49;;;;;;;7.00;5.10;;;10.20;99.90;;;;;;5026678;28;20214;-39
2022/03/15 10:24:20;;;;;;;9.33;5.30;;;10.20;99.90;;;;;;5044446;28;20499;-41
2022/03/15 10:26:51;;;;;;;7.07;5.03;;;10.30;99.90;;;;;;5047933;28;20420;-40
2022/03/15 10:29:18;;;;;;;6.70;5.10;;;10.30;99.90;;;;;;5040137;28;20461;-40
2022/03/15 10:31:45;;;;;;;6.30;4.60;;;10.30;99.90;;;;;;5028736;28;20794;-39
2022/03/15 10:34:12;;;;;;;9.20;5.13;;;10.50;99.90;;;;;;5015698;28;20979;-40
2022/03/15 10:36:41;;;;;;;6.40;4.77;;;10.40;99.90;;;;;;5033853;28;20451;-40
2022/03/15 10:39:09;;;;;;;7.80;4.70;;;10.40;99.90;;;;;;5032481;28;20432;-39
2022/03/15 10:41:53;;;;;;;8.63;5.47;;;10.40;99.90;;;;;;5033218;28;20467;-40
2022/03/15 10:44:21;;;;;;;9.50;4.90;;;10.40;99.90;;;;;;5028096;28;20451;-40
2022/03/15 10:47:05;;;;;;;7.20;4.63;;;10.40;99.90;;;;;;5028610;28;20711;-40
2022/03/15 10:49:45;;;;;;;6.50;4.80;;;10.50;99.90;;;;;;5032333;28;20419;-39
2022/03/15 10:52:11;;;;;;;5.93;4.40;;;10.60;99.90;;;;;;5033955;28;20421;-43
2022/03/15 10:54:37;;;;;;;7.87;4.80;;;10.50;99.90;;;;;;5033027;28;21013;-42
2022/03/15 10:57:03;;;;;;;7.63;5.50;;;10.50;99.90;;;;;;5033076;28;20667;-40
2022/03/15 10:59:29;;;;;;;7.93;5.70;;;10.80;99.90;;;;;;5026569;28;20847;-41
2022/03/15 11:01:55;;;;;;;8.93;5.30;;;10.70;99.90;;;;;;5024970;28;20217;-39
2022/03/15 11:04:21;;;;;;;5.70;5.00;;;10.70;99.90;;;;;;5033462;28;20265;-40
2022/03/15 11:06:49;;;;;;;6.73;4.70;;;10.70;99.90;;;;;;5032530;28;20182;-40
2022/03/15 11:09:19;;;;;;;5.33;4.83;;;10.70;99.90;;;;;;5033395;28;20479;-43
2022/03/15 11:11:51;;;;;;;11.13;5.03;;;10.80;99.90;;;;;;5032822;28;20460;-39
2022/03/15 11:14:49;;;;;;;10.30;5.00;;;10.80;99.90;;;;;;5029860;28;20438;-40
2022/03/15 11:17:20;;;;;;;8.90;5.10;;;10.80;99.90;;;;;;5026536;28;20417;-41
2022/03/15 11:19:52;;;;;;;5.93;4.57;;;10.90;99.90;;;;;;5033149;28;20448;-41
2022/03/15 11:22:21;;;;;;;8.57;5.60;;;10.70;99.90;;;;;;5034233;28;20425;-41
2022/03/15 11:25:09;;;;;;;7.50;5.17;;;10.90;99.90;;;;;;5040764;28;20424;-40
2022/03/15 11:27:40;;;;;;;9.90;5.20;;;10.80;99.90;;;;;;5053040;28;21007;-40
2022/03/15 11:30:17;;;;;;;8.10;5.50;;;11.10;99.90;;;;;;5034282;28;20818;-40
2022/03/15 11:32:44;;;;;;;8.33;5.50;;;11.00;99.90;;;;;;5028198;28;20417;-42
2022/03/15 11:35:12;;;;;;;5.37;4.63;;;11.20;99.90;;;;;;5033331;28;20455;-43
2022/03/15 11:37:39;;;;;;;8.03;5.07;;;11.30;99.90;;;;;;5033163;28;20417;-44
2022/03/15 11:40:08;;;;;;;8.63;4.77;;;11.40;99.90;;;;;;5029717;28;20503;-40
2022/03/15 11:42:35;;;;;;;7.17;4.50;;;11.10;99.90;;;;;;5028472;28;20437;-40
2022/03/15 11:45:24;;;;;;;7.97;5.10;;;11.30;99.90;;;;;;5022780;28;20499;-40
2022/03/15 11:47:59;;;;;;;7.93;5.10;;;11.20;99.90;;;;;;5027201;28;20500;-40
2022/03/15 11:50:38;;;;;;;5.00;4.47;;;11.50;99.90;;;;;;5029152;28;20486;-41
2022/03/15 11:53:06;;;;;;;5.67;4.40;;;11.50;99.90;;;;;;5029545;28;20483;-41
2022/03/15 11:55:56;;;;;;;7.77;4.80;;;11.50;99.90;;;;;;5028618;28;20944;-41
2022/03/15 11:58:27;;;;;;;7.97;5.13;;;11.60;99.90;;;;;;5029931;28;20425;-46
2022/03/15 12:00:54;;;;;;;6.17;4.80;;;11.50;99.90;;;;;;5020789;28;20509;-39
2022/03/15 12:03:23;;;;;;;5.50;4.50;;;11.50;99.90;;;;;;5029342;28;20924;-40
2022/03/15 12:05:57;;;;;;;11.40;6.10;;;11.50;99.90;;;;;;5029827;28;20891;-42
2022/03/15 12:08:24;;;;;;;5.33;4.40;;;11.60;99.90;;;;;;5029467;28;21144;-40
2022/03/15 12:10:50;;;;;;;6.60;4.57;;;11.40;99.90;;;;;;5029176;28;20428;-40
2022/03/15 12:13:17;;;;;;;8.17;4.60;;;11.50;99.90;;;;;;5029662;28;20422;-40
2022/03/15 12:15:48;;;;;;;7.90;4.60;;;11.60;99.90;;;;;;5017571;28;20640;-41
2022/03/15 12:21:07;;;;;;;3.67;3.13;;;11.50;99.90;;;;;;5029024;28;20488;-41
2022/03/15 12:23:40;;;;;;;5.20;3.10;;;11.50;99.90;;;;;;5034193;28;20418;-44
2022/03/15 12:26:20;;;;;;;2.63;2.43;;;11.70;99.90;;;;;;5049036;28;20423;-39
2022/03/15 12:29:03;;;;;;;4.30;3.47;;;11.50;99.90;;;;;;5049062;28;20423;-42
2022/03/15 12:31:38;;;;;;;6.80;3.50;;;11.50;99.90;;;;;;5019453;28;20753;-40
2022/03/15 12:34:10;;;;;;;4.20;3.47;;;11.50;99.90;;;;;;5028920;28;20460;-40
2022/03/15 12:36:47;;;;;;;5.50;3.40;;;11.60;99.90;;;;;;5029211;28;20858;-42
2022/03/15 12:39:17;;;;;;;5.43;3.00;;;11.60;99.90;;;;;;5028885;28;20431;-42
2022/03/15 12:41:43;;;;;;;4.53;3.40;;;11.70;99.90;;;;;;5028446;28;20465;-44
2022/03/15 12:44:10;;;;;;;5.57;3.73;;;11.70;99.90;;;;;;5027792;28;20460;-40
2022/03/15 12:46:38;;;;;;;7.27;3.70;;;11.70;99.90;;;;;;5022897;28;20433;-44
2022/03/15 12:49:09;;;;;;;5.23;3.47;;;11.70;99.90;;;;;;5029042;28;20429;-41
2022/03/15 12:51:45;;;;;;;4.60;3.63;;;11.90;99.90;;;;;;5026404;28;20825;-41
2022/03/15 12:54:13;;;;;;;6.63;3.80;;;11.70;99.90;;;;;;5029184;28;20506;-45
2022/03/15 12:56:49;;;;;;;4.87;3.63;;;11.80;99.90;;;;;;5027608;28;20623;-40